Time;durP1;ratioP1;P1;durP2;ratioP2;P2;SDS_P1;SDS_P2;PMS_P1;PMS_P2;Temp;Humidity;BMP_temperature;BMP_pressure;BME280_temperature;BME280_humidity;BME280_pressure;Samples;Min_cycle;Max_cycle;Signal;HPM_P1;HPM_P2
2023/09/11 14:13:46;;;;;;;;;;;;;;;28.78;35.94;99826.78;5000252;27;4199783;-60
2023/09/11 14:16:13;;;;;;;;;;;;;;;28.75;35.54;99820.09;5150708;27;814;-60
2023/09/11 14:18:40;;;;;;;;;;;;;;;28.68;35.35;99827.13;5150614;27;862;-61
2023/09/11 14:21:07;;;;;;;;;;;;;;;28.33;34.83;99821.41;5150449;27;1977;-62
2023/09/11 14:23:33;;;;;;;;;;;;;;;27.96;33.98;99826.25;5150579;27;893;-60
2023/09/11 14:26:00;;;;;;;;;;;;;;;27.84;34.88;99825.47;5150565;27;850;-61
2023/09/11 14:28:27;;;;;;;;;;;;;;;27.84;35.26;99821.88;5150412;27;855;-61
2023/09/11 14:30:55;;;;;;;;;;;;;;;28.15;34.95;99825.66;5150381;27;830;-60
2023/09/11 14:33:23;;;;;;;;;;;;;;;28.42;34.90;99826.75;5150351;27;827;-60
2023/09/11 14:35:50;;;;;;;;;;;;;;;28.52;34.02;99816.66;5150157;27;899;-60
2023/09/11 14:38:17;;;;;;;;;;;;;;;28.62;34.07;99814.25;5150521;27;873;-60
2023/09/11 14:40:45;;;;;;;;;;;;;;;28.46;34.20;99815.88;5150177;27;917;-60
2023/09/11 14:46:20;;;;;;;;;;;;;;;28.03;34.98;99813.56;5149581;27;681;-60
2023/09/11 14:48:53;;;;;;;;;;;;;;;27.90;35.66;99820.59;5129466;27;843;-60
2023/09/11 14:51:19;;;;;;;;;;;;;;;27.56;36.16;99819.91;5129311;27;834;-61
2023/09/11 14:53:46;;;;;;;;;;;;;;;27.46;37.17;99821.47;5129313;27;890;-60
2023/09/11 14:56:13;;;;;;;;;;;;;;;27.24;37.49;99817.41;5129209;27;905;-60
2023/09/11 14:58:40;;;;;;;;;;;;;;;26.96;38.22;99814.59;5129127;27;836;-61
2023/09/11 15:01:08;;;;;;;;;;;;;;;26.79;38.67;99816.66;5129353;27;1898;-60
2023/09/11 15:03:35;;;;;;;;;;;;;;;26.63;39.14;99821.03;5129079;27;901;-60
2023/09/11 15:06:01;;;;;;;;;;;;;;;26.55;39.13;99826.41;5129064;28;914;-60
2023/09/11 15:08:28;;;;;;;;;;;;;;;26.39;39.92;99822.25;5129012;27;854;-60
2023/09/11 15:11:01;;;;;;;;;;;;;;;25.99;45.04;99829.88;5128896;27;1014;-61
2023/09/11 15:13:28;;;;;;;;;;;;;;;25.41;47.96;99818.78;5122357;27;1298;-60
2023/09/11 15:15:56;;;;;;;;;;;;;;;24.93;50.94;99827.16;5115154;28;811;-61
2023/09/11 15:18:26;;;;;;;;;;;;;;;24.52;53.03;99830.13;5115106;28;870;-61
2023/09/11 15:20:53;;;;;;;;;;;;;;;24.29;54.85;99829.84;5115171;28;840;-62
2023/09/11 15:23:21;;;;;;;;;;;;;;;24.09;56.18;99827.84;5115177;28;1965;-62
2023/09/11 15:25:48;;;;;;;;;;;;;;;23.87;57.90;99833.22;5115140;28;811;-62
2023/09/11 15:28:16;;;;;;;;;;;;;;;23.68;58.76;99833.47;5114834;28;870;-61
2023/09/11 15:30:43;;;;;;;;;;;;;;;23.53;59.81;99838.38;5114816;28;811;-64
2023/09/11 15:33:11;;;;;;;;;;;;;;;23.33;60.96;99842.72;5113638;28;1314;-61
2023/09/11 15:35:57;;;;;;;;;;;;;;;23.16;62.25;99834.00;5114721;27;877;-60
2023/09/11 15:38:22;;;;;;;;;;;;;;;23.00;63.89;99840.94;5114744;28;821;-64
2023/09/11 15:40:49;;;;;;;;;;;;;;;22.89;65.55;99849.19;5114846;28;812;-66
2023/09/11 15:43:16;;;;;;;;;;;;;;;22.81;66.20;99848.81;5114704;28;1889;-65
2023/09/11 15:45:44;;;;;;;;;;;;;;;22.70;67.36;99842.97;5114701;28;1183;-64
2023/09/11 15:48:11;;;;;;;;;;;;;;;22.60;68.51;99852.78;5114874;28;819;-64
2023/09/11 15:50:38;;;;;;;;;;;;;;;22.47;69.44;99846.63;5113249;28;1341;-65
2023/09/11 15:53:05;;;;;;;;;;;;;;;22.35;70.89;99854.88;5114686;27;815;-63
2023/09/11 15:55:34;;;;;;;;;;;;;;;22.24;72.36;99860.31;5114549;28;807;-63
2023/09/11 15:58:01;;;;;;;;;;;;;;;22.09;74.84;99851.78;5114297;28;885;-65
2023/09/11 16:00:28;;;;;;;;;;;;;;;21.95;76.99;99860.97;5114203;28;819;-64
2023/09/11 16:02:55;;;;;;;;;;;;;;;21.80;79.09;99864.50;5114222;28;1945;-64
2023/09/11 16:05:23;;;;;;;;;;;;;;;21.65;81.59;99858.03;5114182;27;863;-62
2023/09/11 16:07:50;;;;;;;;;;;;;;;21.52;84.21;99854.69;5114246;28;966;-62
2023/09/11 16:10:17;;;;;;;;;;;;;;;21.36;86.28;99850.97;5114044;28;941;-63
2023/09/11 16:12:44;;;;;;;;;;;;;;;21.27;87.84;99861.47;5113715;28;1418;-62
2023/09/11 16:15:11;;;;;;;;;;;;;;;21.13;90.75;99863.72;5114053;28;803;-63
2023/09/11 16:17:39;;;;;;;;;;;;;;;20.99;92.57;99870.81;5113945;28;862;-63
2023/09/11 16:20:09;;;;;;;;;;;;;;;20.83;94.23;99865.53;5113944;28;880;-64
2023/09/11 16:22:36;;;;;;;;;;;;;;;20.70;95.49;99868.53;5113813;28;1972;-61
2023/09/11 16:25:03;;;;;;;;;;;;;;;20.58;96.92;99870.25;5111486;28;1417;-61
2023/09/11 16:30:33;;;;;;;;;;;;;;;20.34;99.20;99872.91;5113664;28;822;-61
2023/09/11 16:33:02;;;;;;;;;;;;;;;20.23;99.87;99869.00;5113639;28;803;-61
2023/09/11 16:35:33;;;;;;;;;;;;;;;20.10;100.00;99869.94;5113664;28;851;-61
2023/09/11 16:41:02;;;;;;;;;;;;;;;19.91;100.00;99883.16;5113437;28;1978;-61
2023/09/11 16:43:29;;;;;;;;;;;;;;;19.84;100.00;99885.47;5113448;28;886;-61
2023/09/11 16:45:56;;;;;;;;;;;;;;;19.74;100.00;99882.66;5113447;28;833;-61
2023/09/11 16:48:23;;;;;;;;;;;;;;;19.64;100.00;99880.28;5113513;27;826;-62
2023/09/11 16:50:49;;;;;;;;;;;;;;;19.54;100.00;99880.25;5113386;28;943;-62
2023/09/11 16:53:16;;;;;;;;;;;;;;;19.46;100.00;99883.78;5113454;28;832;-61
2023/09/11 16:55:44;;;;;;;;;;;;;;;19.37;100.00;99881.72;5113765;28;818;-61
2023/09/11 16:58:12;;;;;;;;;;;;;;;19.28;100.00;99885.28;5113175;28;886;-61
2023/09/11 17:00:40;;;;;;;;;;;;;;;19.16;100.00;99894.56;5113218;28;853;-61
2023/09/11 17:03:07;;;;;;;;;;;;;;;18.99;100.00;99888.44;5112923;28;1952;-61
2023/09/11 17:08:37;;;;;;;;;;;;;;;18.65;100.00;99895.66;5113062;28;586;-61
2023/09/11 17:11:03;;;;;;;;;;;;;;;18.50;100.00;99898.19;5112736;28;870;-62
2023/09/11 17:13:31;;;;;;;;;;;;;;;18.34;100.00;99898.34;5112753;28;1494;-62
2023/09/11 17:15:57;;;;;;;;;;;;;;;18.20;100.00;99899.66;5112826;28;803;-61
2023/09/11 17:18:24;;;;;;;;;;;;;;;18.05;100.00;99904.94;5112891;28;800;-61
2023/09/11 17:20:52;;;;;;;;;;;;;;;17.92;100.00;99901.38;5113004;28;819;-61
2023/09/11 17:23:20;;;;;;;;;;;;;;;17.82;100.00;99903.31;5112635;28;1975;-61
2023/09/11 17:25:46;;;;;;;;;;;;;;;17.73;100.00;99906.78;5112908;28;890;-61
2023/09/11 17:28:13;;;;;;;;;;;;;;;17.66;100.00;99911.78;5112533;28;862;-61
2023/09/11 17:30:40;;;;;;;;;;;;;;;17.62;100.00;99911.13;5112698;28;815;-62
2023/09/11 17:33:06;;;;;;;;;;;;;;;17.58;100.00;99911.25;5112624;28;883;-61
2023/09/11 17:38:36;;;;;;;;;;;;;;;17.42;100.00;99917.72;5112447;28;630;-61
2023/09/11 17:41:03;;;;;;;;;;;;;;;17.39;100.00;99915.03;5112347;28;1882;-61
2023/09/11 17:43:29;;;;;;;;;;;;;;;17.36;100.00;99916.72;5112391;28;846;-62
2023/09/11 17:48:59;;;;;;;;;;;;;;;17.31;100.00;99918.06;5112458;28;813;-62
2023/09/11 17:54:28;;;;;;;;;;;;;;;17.25;100.00;99922.63;5112302;28;668;-61
2023/09/11 17:59:58;;;;;;;;;;;;;;;17.24;100.00;99929.47;5112062;28;604;-62
2023/09/11 18:02:24;;;;;;;;;;;;;;;17.25;100.00;99921.84;5112190;28;1881;-62
2023/09/11 18:04:51;;;;;;;;;;;;;;;17.25;100.00;99930.25;5112466;28;890;-62
2023/09/11 18:07:17;;;;;;;;;;;;;;;17.21;100.00;99929.56;5112191;28;827;-62
2023/09/11 18:15:49;;;;;;;;;;;;;;;17.21;100.00;99943.53;5112075;28;693;-61
2023/09/11 18:18:16;;;;;;;;;;;;;;;17.18;100.00;99944.44;5112054;28;854;-61
2023/09/11 18:20:44;;;;;;;;;;;;;;;17.14;100.00;99938.94;5112256;28;834;-61
2023/09/11 18:23:11;;;;;;;;;;;;;;;17.12;100.00;99941.41;5111985;28;1961;-61
2023/09/11 18:25:39;;;;;;;;;;;;;;;17.12;100.00;99944.19;5111908;28;807;-61
2023/09/11 18:28:06;;;;;;;;;;;;;;;17.10;100.00;99952.22;5112064;28;898;-61
2023/09/11 18:33:36;;;;;;;;;;;;;;;17.10;100.00;99943.84;5111946;28;672;-61
2023/09/11 18:36:03;;;;;;;;;;;;;;;17.09;100.00;99945.88;5112049;28;863;-61
2023/09/11 18:38:31;;;;;;;;;;;;;;;17.10;100.00;99939.03;5111798;28;820;-61
2023/09/11 18:40:56;;;;;;;;;;;;;;;17.09;100.00;99942.25;5111947;28;818;-61
2023/09/11 18:43:23;;;;;;;;;;;;;;;17.07;100.00;99941.94;5110330;28;2075;-61
2023/09/11 18:45:50;;;;;;;;;;;;;;;17.04;100.00;99935.22;5112051;28;873;-61
2023/09/11 18:51:19;;;;;;;;;;;;;;;17.01;100.00;99935.34;5115639;28;829;-61
2023/09/11 18:53:46;;;;;;;;;;;;;;;17.00;100.00;99940.13;5115604;28;901;-61
2023/09/11 18:59:16;;;;;;;;;;;;;;;16.97;100.00;99941.03;5115822;28;602;-61
2023/09/11 19:01:45;;;;;;;;;;;;;;;16.94;100.00;99942.69;5115474;28;1893;-61
2023/09/11 19:04:12;;;;;;;;;;;;;;;16.93;100.00;99941.13;5114317;28;851;-61
2023/09/11 19:09:42;;;;;;;;;;;;;;;16.91;100.00;99940.00;5115269;28;662;-61
2023/09/11 19:15:12;;;;;;;;;;;;;;;16.86;100.00;99938.53;5115203;28;867;-61
2023/09/11 19:17:39;;;;;;;;;;;;;;;16.85;100.00;99939.75;5115392;28;847;-61
2023/09/11 19:20:06;;;;;;;;;;;;;;;16.86;100.00;99935.75;5115187;28;827;-61
2023/09/11 19:22:33;;;;;;;;;;;;;;;16.84;100.00;99932.63;5114863;28;1975;-61
2023/09/11 19:25:01;;;;;;;;;;;;;;;16.85;100.00;99930.59;5114940;28;847;-61
2023/09/11 19:27:29;;;;;;;;;;;;;;;16.84;100.00;99934.63;5114942;27;886;-61
2023/09/11 19:29:56;;;;;;;;;;;;;;;16.83;100.00;99939.41;5114864;28;923;-62
2023/09/11 19:32:23;;;;;;;;;;;;;;;16.74;100.00;99942.81;5114889;28;816;-62
2023/09/11 19:37:53;;;;;;;;;;;;;;;16.51;100.00;99940.28;5114833;28;662;-62
2023/09/11 19:40:19;;;;;;;;;;;;;;;16.43;100.00;99948.06;5114640;28;885;-61
2023/09/11 19:42:46;;;;;;;;;;;;;;;16.39;100.00;99935.44;5114728;28;1893;-61
2023/09/11 19:51:19;;;;;;;;;;;;;;;16.23;100.00;99942.59;5114545;28;778;-61
2023/09/11 19:53:46;;;;;;;;;;;;;;;16.19;100.00;99941.13;5114655;28;853;-61
2023/09/11 19:59:15;;;;;;;;;;;;;;;16.03;100.00;99942.72;5114283;28;614;-61
2023/09/11 20:01:42;;;;;;;;;;;;;;;15.98;100.00;99934.88;5114196;28;1878;-61
2023/09/11 20:04:09;;;;;;;;;;;;;;;15.95;100.00;99932.97;5114251;28;819;-61
2023/09/11 20:06:36;;;;;;;;;;;;;;;15.97;100.00;99932.53;5114317;28;847;-61
2023/09/11 20:09:03;;;;;;;;;;;;;;;15.97;100.00;99929.75;5114206;28;800;-61
2023/09/11 20:20:38;;;;;;;;;;;;;;;15.98;100.00;99937.69;5113853;28;649;-61
2023/09/11 20:23:05;;;;;;;;;;;;;;;15.96;100.00;99939.31;5113837;28;1969;-61
2023/09/11 20:25:32;;;;;;;;;;;;;;;15.91;100.00;99935.03;5113672;28;866;-61
2023/09/11 20:27:58;;;;;;;;;;;;;;;15.92;100.00;99933.84;5113812;28;823;-61
2023/09/11 20:30:26;;;;;;;;;;;;;;;15.91;100.00;99937.84;5113715;28;855;-61
2023/09/11 20:32:53;;;;;;;;;;;;;;;15.92;100.00;99933.84;5113638;28;815;-61
2023/09/11 20:35:20;;;;;;;;;;;;;;;15.95;100.00;99944.09;5113590;28;1017;-61
2023/09/11 20:37:46;;;;;;;;;;;;;;;15.97;100.00;99932.53;5113514;28;843;-61
2023/09/11 20:40:13;;;;;;;;;;;;;;;15.98;100.00;99940.47;5113559;28;821;-61
2023/09/11 20:42:39;;;;;;;;;;;;;;;15.99;100.00;99936.44;5113299;28;1889;-61
2023/09/11 20:45:07;;;;;;;;;;;;;;;16.00;100.00;99934.44;5113520;28;850;-61
2023/09/11 20:47:33;;;;;;;;;;;;;;;15.99;100.00;99936.44;5113420;28;815;-61
2023/09/11 20:53:03;;;;;;;;;;;;;;;15.80;100.00;99903.88;5113276;28;623;-61
2023/09/11 20:55:30;;;;;;;;;;;;;;;15.95;100.00;99927.38;5113219;28;844;-61
2023/09/11 20:57:57;;;;;;;;;;;;;;;15.91;100.00;99929.47;5113144;28;844;-61
2023/09/11 21:00:23;;;;;;;;;;;;;;;15.89;100.00;99927.13;5113168;28;910;-61
2023/09/11 21:02:50;;;;;;;;;;;;;;;15.83;100.00;99930.88;5113077;28;1945;-61
2023/09/11 21:05:17;;;;;;;;;;;;;;;15.77;100.00;99929.81;5113304;28;879;-61
2023/09/11 21:07:44;;;;;;;;;;;;;;;15.70;100.00;99934.34;5112931;28;870;-61
2023/09/11 21:10:11;;;;;;;;;;;;;;;15.66;100.00;99935.63;5113091;28;847;-61
2023/09/11 21:12:49;;;;;;;;;;;;;;;15.54;100.00;99930.75;5112326;28;1431;-61
2023/09/11 21:15:16;;;;;;;;;;;;;;;15.38;100.00;99934.28;5112919;28;851;-61
2023/09/11 21:17:43;;;;;;;;;;;;;;;15.22;100.00;99938.59;5112795;28;811;-61
2023/09/11 21:20:10;;;;;;;;;;;;;;;15.07;100.00;99934.56;5112769;28;807;-61
2023/09/11 21:22:37;;;;;;;;;;;;;;;14.97;100.00;99936.34;5112708;28;1969;-61
2023/09/11 21:25:04;;;;;;;;;;;;;;;14.86;100.00;99928.22;5112762;28;807;-61
2023/09/11 21:27:32;;;;;;;;;;;;;;;14.76;100.00;99926.41;5112613;28;918;-61
2023/09/11 21:29:59;;;;;;;;;;;;;;;14.79;100.00;99933.94;5112567;28;808;-61
2023/09/11 21:32:27;;;;;;;;;;;;;;;14.90;100.00;99926.13;5112704;28;846;-61
2023/09/11 21:34:54;;;;;;;;;;;;;;;15.13;100.00;99929.25;5112495;28;847;-61
2023/09/11 21:37:22;;;;;;;;;;;;;;;15.26;100.00;99930.19;5112537;28;909;-61
2023/09/11 21:45:54;;;;;;;;;;;;;;;15.38;100.00;99929.47;5112300;28;630;-61
2023/09/11 21:48:20;;;;;;;;;;;;;;;15.42;100.00;99932.97;5112297;28;940;-61
2023/09/11 21:50:47;;;;;;;;;;;;;;;15.38;100.00;99937.06;5112532;28;823;-61
2023/09/11 21:53:14;;;;;;;;;;;;;;;15.23;100.00;99928.25;5112307;28;860;-61
2023/09/11 21:55:41;;;;;;;;;;;;;;;15.10;100.00;99933.69;5112429;28;865;-61
2023/09/11 21:58:08;;;;;;;;;;;;;;;14.99;100.00;99942.25;5112359;28;894;-61
2023/09/11 22:00:36;;;;;;;;;;;;;;;14.90;100.00;99928.91;5112388;28;878;-61
2023/09/11 22:03:02;;;;;;;;;;;;;;;14.79;100.00;99936.72;5112195;28;1939;-61
2023/09/11 22:14:38;;;;;;;;;;;;;;;14.36;100.00;99936.69;5112129;28;849;-61
2023/09/11 22:17:06;;;;;;;;;;;;;;;14.28;100.00;99936.06;5112085;28;874;-61
2023/09/11 22:19:33;;;;;;;;;;;;;;;14.18;100.00;99940.59;5112014;28;838;-61
2023/09/11 22:22:00;;;;;;;;;;;;;;;14.12;100.00;99941.50;5111776;28;1937;-61
2023/09/11 22:27:29;;;;;;;;;;;;;;;14.07;100.00;99937.22;5116141;28;864;-61
2023/09/11 22:29:56;;;;;;;;;;;;;;;14.07;100.00;99935.22;5115947;28;846;-61
2023/09/11 22:35:26;;;;;;;;;;;;;;;14.02;100.00;99937.72;5115936;28;954;-61
2023/09/11 22:40:55;;;;;;;;;;;;;;;13.97;100.00;99932.63;5115875;28;795;-61
2023/09/11 22:43:22;;;;;;;;;;;;;;;13.97;100.00;99935.41;5115603;28;1952;-62
2023/09/11 22:45:49;;;;;;;;;;;;;;;13.96;100.00;99936.63;5115765;28;851;-62
2023/09/11 22:48:15;;;;;;;;;;;;;;;13.95;100.00;99933.03;5115698;28;827;-62
2023/09/11 22:50:43;;;;;;;;;;;;;;;13.94;100.00;99923.13;5116062;28;870;-62
2023/09/11 22:53:11;;;;;;;;;;;;;;;13.94;100.00;99936.25;5115426;28;875;-62
2023/09/11 22:55:38;;;;;;;;;;;;;;;13.91;100.00;99929.53;5115665;28;831;-62
2023/09/11 22:58:06;;;;;;;;;;;;;;;13.90;100.00;99927.97;5115551;28;965;-62
2023/09/11 23:03:39;;;;;;;;;;;;;;;13.89;100.00;99918.06;5115518;28;1877;-62
2023/09/11 23:06:06;;;;;;;;;;;;;;;13.89;100.00;99926.41;5115324;28;862;-62
2023/09/11 23:08:33;;;;;;;;;;;;;;;13.88;100.00;99924.81;5115435;28;863;-62
2023/09/11 23:14:03;;;;;;;;;;;;;;;13.82;100.00;99927.28;5094884;28;1046;-62
2023/09/11 23:16:29;;;;;;;;;;;;;;;13.82;100.00;99918.94;5094750;28;1213;-62
2023/09/11 23:18:57;;;;;;;;;;;;;;;13.80;100.00;99913.03;5094733;28;851;-62
2023/09/11 23:21:24;;;;;;;;;;;;;;;13.81;100.00;99917.41;5095187;28;1910;-62
2023/09/11 23:26:54;;;;;;;;;;;;;;;13.78;100.00;99917.44;5094667;28;786;-61
2023/09/11 23:29:21;;;;;;;;;;;;;;;13.73;100.00;99915.16;5094455;28;898;-62
2023/09/11 23:31:49;;;;;;;;;;;;;;;13.68;100.00;99914.44;5094552;28;827;-62
2023/09/11 23:34:15;;;;;;;;;;;;;;;13.66;100.00;99910.50;5093998;28;826;-62
2023/09/11 23:39:45;;;;;;;;;;;;;;;13.59;100.00;99911.41;5094440;28;864;-62
2023/09/11 23:42:12;;;;;;;;;;;;;;;13.59;100.00;99914.19;5094470;28;1953;-62
2023/09/11 23:50:45;;;;;;;;;;;;;;;13.53;100.00;99913.09;5094174;28;965;-62
2023/09/11 23:53:12;;;;;;;;;;;;;;;13.50;100.00;99915.91;5093926;28;808;-62
2023/09/11 23:55:39;;;;;;;;;;;;;;;13.47;100.00;99915.53;5094097;28;883;-62
